TimeCST,TemperatureF,Dew PointF,Humidity,Sea Level PressureIn,VisibilityMPH,Wind Direction,Wind SpeedMPH,Gust SpeedMPH,PrecipitationIn,Events,Conditions,WindDirDegrees,DateUTC
12:53 AM,63.0,59.0,87,30.20,10.0,SE,11.5,-,N/A,,Mostly Cloudy,130,2013-01-28 06:53:00
1:53 AM,61.0,57.9,90,30.21,10.0,SE,4.6,-,N/A,,Mostly Cloudy,130,2013-01-28 07:53:00
2:53 AM,57.9,55.9,93,30.22,10.0,Calm,Calm,-,N/A,,Mostly Cloudy,0,2013-01-28 08:53:00
3:53 AM,57.0,55.9,96,30.21,7.0,Calm,Calm,-,N/A,,Mostly Cloudy,0,2013-01-28 09:53:00
4:53 AM,57.0,55.0,93,30.21,7.0,NE,4.6,-,N/A,,Mostly Cloudy,50,2013-01-28 10:53:00
5:53 AM,57.9,55.9,93,30.22,6.0,East,5.8,-,N/A,,Mostly Cloudy,90,2013-01-28 11:53:00
6:53 AM,60.1,57.9,93,30.22,6.0,ESE,4.6,-,N/A,,Mostly Cloudy,120,2013-01-28 12:53:00
7:53 AM,63.0,60.1,90,30.24,7.0,SE,6.9,-,N/A,,Mostly Cloudy,130,2013-01-28 13:53:00
8:53 AM,66.9,63.0,87,30.24,8.0,SE,10.4,-,N/A,,Mostly Cloudy,140,2013-01-28 14:53:00
9:53 AM,72.0,64.0,76,30.25,10.0,SSE,9.2,-,N/A,,Mostly Cloudy,160,2013-01-28 15:53:00
10:53 AM,73.0,63.0,71,30.25,10.0,SSE,11.5,-,N/A,,Mostly Cloudy,150,2013-01-28 16:53:00
11:53 AM,75.9,63.0,64,30.23,10.0,SSE,11.5,-,N/A,,Mostly Cloudy,160,2013-01-28 17:53:00
12:53 PM,75.0,63.0,66,30.20,10.0,South,9.2,-,N/A,,Overcast,170,2013-01-28 18:53:00
1:53 PM,75.9,63.0,64,30.18,10.0,South,10.4,-,N/A,,Mostly Cloudy,170,2013-01-28 19:53:00
2:53 PM,75.9,63.0,64,30.16,10.0,South,12.7,-,N/A,,Mostly Cloudy,170,2013-01-28 20:53:00
3:53 PM,73.9,63.0,68,30.15,10.0,ESE,10.4,-,N/A,,Scattered Clouds,110,2013-01-28 21:53:00
4:42 PM,73.4,62.6,69,30.15,10.0,SE,10.4,-,N/A,,Mostly Cloudy,140,2013-01-28 22:42:00
4:53 PM,73.0,63.0,71,30.16,10.0,SE,8.1,-,N/A,,Mostly Cloudy,130,2013-01-28 22:53:00
5:17 PM,71.6,64.4,78,30.15,10.0,SE,10.4,-,N/A,,Scattered Clouds,130,2013-01-28 23:17:00
5:53 PM,70.0,64.0,81,30.16,10.0,ESE,6.9,-,N/A,,Partly Cloudy,120,2013-01-28 23:53:00
6:53 PM,68.0,64.0,87,30.16,9.0,ESE,8.1,-,N/A,,Partly Cloudy,110,2013-01-29 00:53:00
7:44 PM,66.2,64.4,94,30.15,8.0,ESE,8.1,-,N/A,,Mostly Cloudy,120,2013-01-29 01:44:00
7:53 PM,68.0,64.0,87,30.16,8.0,ESE,9.2,-,N/A,,Mostly Cloudy,120,2013-01-29 01:53:00
8:53 PM,68.0,64.9,90,30.15,6.0,ESE,10.4,-,N/A,,Overcast,110,2013-01-29 02:53:00
9:53 PM,68.0,64.9,90,30.15,6.0,ESE,10.4,-,N/A,,Overcast,120,2013-01-29 03:53:00
10:53 PM,66.9,64.9,93,30.14,5.0,SSE,9.2,-,N/A,,Overcast,150,2013-01-29 04:53:00
10:58 PM,66.2,64.4,94,30.13,0.5,SSE,6.9,-,N/A,,Overcast,150,2013-01-29 04:58:00
11:53 PM,66.9,66.0,97,30.13,3.0,SE,9.2,-,N/A,,Overcast,140,2013-01-29 05:53:00